Terminal Aerodrome Forecast
Issued by NWS

Home | Current Version | Previous Version | Text Only | Print | Product List | Glossary On
Versions: 1 2 3 4 5 6 7 8 9 10 11 12 13 14 15 16 17 18 19 20 21 22 23 24 25 26
000
FTUS41 KALY 222300
TAFPSF
TAF
KPSF 222320Z 2300/2324 08004KT P6SM BKN015 OVC035
      TEMPO 2301/2303 4SM -RAPLDZ BR OVC014
     FM230300 09003KT 4SM -RAPL BR SCT008 OVC015
      TEMPO 2303/2306 1 1/2SM -RAPL BR BKN008 OVC012
     FM230800 09003KT 2SM -RA BR OVC006
     FM231500 09005KT 5SM -RA BR OVC006=

USA.gov is the U.S. government's official web portal to all federal, state and local government web resources and services.